sensor_id;sensor_type;location;lat;lon;timestamp;temperature;humidity
17571;DHT22;8903;52.220;20.978;2023-06-04T00:02:23;12.10;94.50
17571;DHT22;8903;52.220;20.978;2023-06-04T00:04:50;12.10;94.70
17571;DHT22;8903;52.220;20.978;2023-06-04T00:07:17;12.00;94.60
17571;DHT22;8903;52.220;20.978;2023-06-04T00:09:45;12.00;94.60
17571;DHT22;8903;52.220;20.978;2023-06-04T00:12:12;12.00;94.80
17571;DHT22;8903;52.220;20.978;2023-06-04T00:14:39;12.00;94.50
17571;DHT22;8903;52.220;20.978;2023-06-04T00:17:08;12.00;94.60
17571;DHT22;8903;52.220;20.978;2023-06-04T00:19:35;11.90;94.60
17571;DHT22;8903;52.220;20.978;2023-06-04T00:22:02;11.90;94.60
17571;DHT22;8903;52.220;20.978;2023-06-04T00:24:29;11.90;94.70
17571;DHT22;8903;52.220;20.978;2023-06-04T00:26:56;11.90;94.60
17571;DHT22;8903;52.220;20.978;2023-06-04T00:29:23;11.90;94.50
17571;DHT22;8903;52.220;20.978;2023-06-04T00:31:50;11.80;94.50
17571;DHT22;8903;52.220;20.978;2023-06-04T00:34:18;11.80;94.80
17571;DHT22;8903;52.220;20.978;2023-06-04T00:36:46;11.80;94.70
17571;DHT22;8903;52.220;20.978;2023-06-04T00:39:12;11.70;94.70
17571;DHT22;8903;52.220;20.978;2023-06-04T00:41:40;11.70;94.70
17571;DHT22;8903;52.220;20.978;2023-06-04T00:44:07;11.70;94.80
17571;DHT22;8903;52.220;20.978;2023-06-04T00:46:34;11.60;94.90
17571;DHT22;8903;52.220;20.978;2023-06-04T00:49:01;11.60;94.80
17571;DHT22;8903;52.220;20.978;2023-06-04T00:51:31;11.60;95.00
17571;DHT22;8903;52.220;20.978;2023-06-04T00:53:58;11.50;94.80
17571;DHT22;8903;52.220;20.978;2023-06-04T00:56:27;11.50;95.00
17571;DHT22;8903;52.220;20.978;2023-06-04T00:58:54;11.50;95.00
17571;DHT22;8903;52.220;20.978;2023-06-04T01:01:29;11.40;94.90
17571;DHT22;8903;52.220;20.978;2023-06-04T01:04:00;11.40;94.80
17571;DHT22;8903;52.220;20.978;2023-06-04T01:06:37;11.40;95.00
17571;DHT22;8903;52.220;20.978;2023-06-04T01:09:05;11.40;94.70
17571;DHT22;8903;52.220;20.978;2023-06-04T01:11:34;11.30;94.90
17571;DHT22;8903;52.220;20.978;2023-06-04T01:14:01;11.30;94.70
17571;DHT22;8903;52.220;20.978;2023-06-04T01:16:33;11.30;94.70
17571;DHT22;8903;52.220;20.978;2023-06-04T01:19:02;11.30;94.80
17571;DHT22;8903;52.220;20.978;2023-06-04T01:21:36;11.20;94.70
17571;DHT22;8903;52.220;20.978;2023-06-04T01:24:05;11.20;94.90
17571;DHT22;8903;52.220;20.978;2023-06-04T01:26:33;11.30;94.90
17571;DHT22;8903;52.220;20.978;2023-06-04T01:29:01;11.30;95.00
17571;DHT22;8903;52.220;20.978;2023-06-04T01:31:28;11.20;94.90
17571;DHT22;8903;52.220;20.978;2023-06-04T01:33:58;11.20;94.90
17571;DHT22;8903;52.220;20.978;2023-06-04T01:36:26;11.20;95.10
17571;DHT22;8903;52.220;20.978;2023-06-04T01:38:54;11.20;95.20
17571;DHT22;8903;52.220;20.978;2023-06-04T01:41:21;11.20;95.10
17571;DHT22;8903;52.220;20.978;2023-06-04T01:43:48;11.20;95.20
17571;DHT22;8903;52.220;20.978;2023-06-04T01:46:15;11.10;95.20
17571;DHT22;8903;52.220;20.978;2023-06-04T01:48:43;11.10;95.30
17571;DHT22;8903;52.220;20.978;2023-06-04T01:51:10;11.10;95.40
17571;DHT22;8903;52.220;20.978;2023-06-04T01:53:37;11.10;95.50
17571;DHT22;8903;52.220;20.978;2023-06-04T01:56:05;11.10;95.40
17571;DHT22;8903;52.220;20.978;2023-06-04T01:58:33;11.10;95.50
17571;DHT22;8903;52.220;20.978;2023-06-04T02:01:01;11.00;95.20
17571;DHT22;8903;52.220;20.978;2023-06-04T02:03:30;11.00;95.40
17571;DHT22;8903;52.220;20.978;2023-06-04T02:06:03;11.00;95.30
17571;DHT22;8903;52.220;20.978;2023-06-04T02:08:30;11.00;95.30
17571;DHT22;8903;52.220;20.978;2023-06-04T02:10:59;11.00;95.20
17571;DHT22;8903;52.220;20.978;2023-06-04T02:13:27;11.00;95.10
17571;DHT22;8903;52.220;20.978;2023-06-04T02:15:54;11.00;95.20
17571;DHT22;8903;52.220;20.978;2023-06-04T02:18:21;11.00;95.40
17571;DHT22;8903;52.220;20.978;2023-06-04T02:20:49;11.00;95.20
17571;DHT22;8903;52.220;20.978;2023-06-04T02:23:18;11.00;95.20
17571;DHT22;8903;52.220;20.978;2023-06-04T02:25:46;11.00;95.10
17571;DHT22;8903;52.220;20.978;2023-06-04T02:28:13;11.00;95.20
17571;DHT22;8903;52.220;20.978;2023-06-04T02:30:43;11.00;95.10
17571;DHT22;8903;52.220;20.978;2023-06-04T02:33:10;11.00;95.10
17571;DHT22;8903;52.220;20.978;2023-06-04T02:35:37;11.00;95.10
17571;DHT22;8903;52.220;20.978;2023-06-04T02:38:04;11.00;95.20
17571;DHT22;8903;52.220;20.978;2023-06-04T02:40:31;11.00;95.10
17571;DHT22;8903;52.220;20.978;2023-06-04T02:42:58;11.00;95.00
17571;DHT22;8903;52.220;20.978;2023-06-04T02:45:26;11.00;95.10
17571;DHT22;8903;52.220;20.978;2023-06-04T02:47:56;11.00;95.10
17571;DHT22;8903;52.220;20.978;2023-06-04T02:50:23;11.00;95.10
17571;DHT22;8903;52.220;20.978;2023-06-04T02:52:50;11.00;95.20
17571;DHT22;8903;52.220;20.978;2023-06-04T02:55:17;11.00;95.20
17571;DHT22;8903;52.220;20.978;2023-06-04T02:57:44;11.00;95.10
17571;DHT22;8903;52.220;20.978;2023-06-04T03:00:12;11.00;95.20
17571;DHT22;8903;52.220;20.978;2023-06-04T03:02:41;11.00;95.20
17571;DHT22;8903;52.220;20.978;2023-06-04T03:05:11;11.00;95.20
17571;DHT22;8903;52.220;20.978;2023-06-04T03:07:39;11.00;95.20
17571;DHT22;8903;52.220;20.978;2023-06-04T03:10:08;11.00;95.10
17571;DHT22;8903;52.220;20.978;2023-06-04T03:12:36;11.00;95.20
17571;DHT22;8903;52.220;20.978;2023-06-04T03:15:04;11.00;95.20
17571;DHT22;8903;52.220;20.978;2023-06-04T03:17:32;11.00;95.40
17571;DHT22;8903;52.220;20.978;2023-06-04T03:19:58;11.00;95.30
17571;DHT22;8903;52.220;20.978;2023-06-04T03:22:27;11.00;95.30
17571;DHT22;8903;52.220;20.978;2023-06-04T03:24:54;11.00;95.40
17571;DHT22;8903;52.220;20.978;2023-06-04T03:27:21;11.00;95.50
17571;DHT22;8903;52.220;20.978;2023-06-04T03:29:48;11.00;95.40
17571;DHT22;8903;52.220;20.978;2023-06-04T03:32:17;11.00;95.50
17571;DHT22;8903;52.220;20.978;2023-06-04T03:34:45;11.00;95.60
17571;DHT22;8903;52.220;20.978;2023-06-04T03:37:12;11.00;95.60
17571;DHT22;8903;52.220;20.978;2023-06-04T03:39:40;11.00;95.70
17571;DHT22;8903;52.220;20.978;2023-06-04T03:42:11;11.00;95.70
17571;DHT22;8903;52.220;20.978;2023-06-04T03:44:38;11.00;95.70
17571;DHT22;8903;52.220;20.978;2023-06-04T03:47:06;11.00;95.70
17571;DHT22;8903;52.220;20.978;2023-06-04T03:49:34;11.00;95.70
17571;DHT22;8903;52.220;20.978;2023-06-04T03:52:01;11.10;95.80
17571;DHT22;8903;52.220;20.978;2023-06-04T03:54:28;11.10;95.80
17571;DHT22;8903;52.220;20.978;2023-06-04T03:56:57;11.10;95.70
17571;DHT22;8903;52.220;20.978;2023-06-04T03:59:24;11.20;95.80
17571;DHT22;8903;52.220;20.978;2023-06-04T04:01:51;11.20;95.80
17571;DHT22;8903;52.220;20.978;2023-06-04T04:04:18;11.20;95.70
17571;DHT22;8903;52.220;20.978;2023-06-04T04:06:45;11.20;95.60
17571;DHT22;8903;52.220;20.978;2023-06-04T04:09:12;11.30;95.90
17571;DHT22;8903;52.220;20.978;2023-06-04T04:11:39;11.30;95.80
17571;DHT22;8903;52.220;20.978;2023-06-04T04:14:10;11.40;95.50
17571;DHT22;8903;52.220;20.978;2023-06-04T04:16:37;11.40;95.50
17571;DHT22;8903;52.220;20.978;2023-06-04T04:19:04;11.40;95.40
17571;DHT22;8903;52.220;20.978;2023-06-04T04:21:34;11.50;95.60
17571;DHT22;8903;52.220;20.978;2023-06-04T04:24:02;11.60;95.60
17571;DHT22;8903;52.220;20.978;2023-06-04T04:26:29;11.60;95.40
17571;DHT22;8903;52.220;20.978;2023-06-04T04:28:58;11.70;95.40
17571;DHT22;8903;52.220;20.978;2023-06-04T04:31:30;11.80;95.30
17571;DHT22;8903;52.220;20.978;2023-06-04T04:33:57;11.90;95.10
17571;DHT22;8903;52.220;20.978;2023-06-04T04:36:26;11.90;94.80
17571;DHT22;8903;52.220;20.978;2023-06-04T04:38:54;12.00;94.80
17571;DHT22;8903;52.220;20.978;2023-06-04T04:41:30;12.10;94.70
17571;DHT22;8903;52.220;20.978;2023-06-04T04:44:03;12.20;94.70
17571;DHT22;8903;52.220;20.978;2023-06-04T04:46:32;12.30;94.80
17571;DHT22;8903;52.220;20.978;2023-06-04T04:48:59;12.40;94.70
17571;DHT22;8903;52.220;20.978;2023-06-04T04:51:26;12.50;94.70
17571;DHT22;8903;52.220;20.978;2023-06-04T04:53:55;12.60;94.20
17571;DHT22;8903;52.220;20.978;2023-06-04T04:56:23;12.70;94.00
17571;DHT22;8903;52.220;20.978;2023-06-04T04:58:52;12.70;94.00
17571;DHT22;8903;52.220;20.978;2023-06-04T05:01:20;12.80;94.00
17571;DHT22;8903;52.220;20.978;2023-06-04T05:03:48;12.80;94.00
17571;DHT22;8903;52.220;20.978;2023-06-04T05:06:16;12.90;93.80
17571;DHT22;8903;52.220;20.978;2023-06-04T05:08:44;13.00;93.70
17571;DHT22;8903;52.220;20.978;2023-06-04T05:11:13;13.10;93.70
17571;DHT22;8903;52.220;20.978;2023-06-04T05:13:41;13.30;93.50
17571;DHT22;8903;52.220;20.978;2023-06-04T05:16:09;13.40;93.40
17571;DHT22;8903;52.220;20.978;2023-06-04T05:18:38;13.50;93.10
17571;DHT22;8903;52.220;20.978;2023-06-04T05:21:10;13.60;93.10
17571;DHT22;8903;52.220;20.978;2023-06-04T05:23:43;13.70;93.00
17571;DHT22;8903;52.220;20.978;2023-06-04T05:26:14;13.80;92.70
17571;DHT22;8903;52.220;20.978;2023-06-04T05:28:41;13.90;92.10
17571;DHT22;8903;52.220;20.978;2023-06-04T05:31:10;14.00;92.20
17571;DHT22;8903;52.220;20.978;2023-06-04T05:33:39;14.10;91.60
17571;DHT22;8903;52.220;20.978;2023-06-04T05:36:12;14.20;91.40
17571;DHT22;8903;52.220;20.978;2023-06-04T05:38:46;14.20;91.20
17571;DHT22;8903;52.220;20.978;2023-06-04T05:41:15;14.30;91.20
17571;DHT22;8903;52.220;20.978;2023-06-04T05:43:43;14.40;91.60
17571;DHT22;8903;52.220;20.978;2023-06-04T05:46:11;14.50;91.60
17571;DHT22;8903;52.220;20.978;2023-06-04T05:48:40;14.70;91.60
17571;DHT22;8903;52.220;20.978;2023-06-04T05:51:07;14.80;91.90
17571;DHT22;8903;52.220;20.978;2023-06-04T05:53:37;14.90;91.30
17571;DHT22;8903;52.220;20.978;2023-06-04T05:56:04;15.00;91.30
17571;DHT22;8903;52.220;20.978;2023-06-04T05:58:32;15.10;91.10
17571;DHT22;8903;52.220;20.978;2023-06-04T06:01:00;15.30;91.00
17571;DHT22;8903;52.220;20.978;2023-06-04T06:03:27;15.40;91.00
17571;DHT22;8903;52.220;20.978;2023-06-04T06:05:55;15.50;90.60
17571;DHT22;8903;52.220;20.978;2023-06-04T06:08:24;15.60;90.50
17571;DHT22;8903;52.220;20.978;2023-06-04T06:10:52;15.70;90.70
17571;DHT22;8903;52.220;20.978;2023-06-04T06:13:19;15.70;90.40
17571;DHT22;8903;52.220;20.978;2023-06-04T06:15:47;15.80;90.70
17571;DHT22;8903;52.220;20.978;2023-06-04T06:18:14;15.80;90.40
17571;DHT22;8903;52.220;20.978;2023-06-04T06:20:41;15.90;90.50
17571;DHT22;8903;52.220;20.978;2023-06-04T06:23:09;15.90;90.50
17571;DHT22;8903;52.220;20.978;2023-06-04T06:25:40;16.00;89.90
17571;DHT22;8903;52.220;20.978;2023-06-04T06:28:13;16.00;90.40
17571;DHT22;8903;52.220;20.978;2023-06-04T06:30:42;16.00;90.60
17571;DHT22;8903;52.220;20.978;2023-06-04T06:33:09;16.10;90.30
17571;DHT22;8903;52.220;20.978;2023-06-04T06:35:36;16.20;90.50
17571;DHT22;8903;52.220;20.978;2023-06-04T06:38:03;16.20;90.00
17571;DHT22;8903;52.220;20.978;2023-06-04T06:40:30;16.30;90.20
17571;DHT22;8903;52.220;20.978;2023-06-04T06:42:57;16.40;90.10
17571;DHT22;8903;52.220;20.978;2023-06-04T06:45:25;16.40;90.30
17571;DHT22;8903;52.220;20.978;2023-06-04T06:47:52;16.40;90.20
17571;DHT22;8903;52.220;20.978;2023-06-04T06:50:19;16.50;90.40
17571;DHT22;8903;52.220;20.978;2023-06-04T06:52:46;16.60;90.00
17571;DHT22;8903;52.220;20.978;2023-06-04T06:55:13;16.70;89.50
17571;DHT22;8903;52.220;20.978;2023-06-04T06:57:40;16.80;89.10
17571;DHT22;8903;52.220;20.978;2023-06-04T07:00:08;16.90;89.00
17571;DHT22;8903;52.220;20.978;2023-06-04T07:02:37;16.90;88.90
17571;DHT22;8903;52.220;20.978;2023-06-04T07:05:04;16.90;89.20
17571;DHT22;8903;52.220;20.978;2023-06-04T07:07:31;16.90;88.40
17571;DHT22;8903;52.220;20.978;2023-06-04T07:09:58;17.00;87.80
17571;DHT22;8903;52.220;20.978;2023-06-04T07:12:25;17.00;87.30
17571;DHT22;8903;52.220;20.978;2023-06-04T07:14:52;16.90;85.70
17571;DHT22;8903;52.220;20.978;2023-06-04T07:17:19;17.00;85.70
17571;DHT22;8903;52.220;20.978;2023-06-04T07:19:48;17.00;84.80
17571;DHT22;8903;52.220;20.978;2023-06-04T07:22:15;17.00;85.70
17571;DHT22;8903;52.220;20.978;2023-06-04T07:24:42;17.20;85.10
17571;DHT22;8903;52.220;20.978;2023-06-04T07:27:12;17.20;85.60
17571;DHT22;8903;52.220;20.978;2023-06-04T07:29:42;17.20;84.80
17571;DHT22;8903;52.220;20.978;2023-06-04T07:32:09;17.20;84.70
17571;DHT22;8903;52.220;20.978;2023-06-04T07:34:37;17.30;85.30
17571;DHT22;8903;52.220;20.978;2023-06-04T07:37:06;17.40;85.70
17571;DHT22;8903;52.220;20.978;2023-06-04T07:39:35;17.40;86.40
17571;DHT22;8903;52.220;20.978;2023-06-04T07:42:02;17.60;83.80
17571;DHT22;8903;52.220;20.978;2023-06-04T07:44:29;17.60;83.50
17571;DHT22;8903;52.220;20.978;2023-06-04T07:46:56;17.60;83.80
17571;DHT22;8903;52.220;20.978;2023-06-04T07:49:22;17.70;83.70
17571;DHT22;8903;52.220;20.978;2023-06-04T07:51:49;17.80;84.60
17571;DHT22;8903;52.220;20.978;2023-06-04T07:54:18;17.80;82.90
17571;DHT22;8903;52.220;20.978;2023-06-04T07:56:45;17.70;83.00
17571;DHT22;8903;52.220;20.978;2023-06-04T07:59:11;17.60;84.10
17571;DHT22;8903;52.220;20.978;2023-06-04T08:01:38;17.60;84.60
17571;DHT22;8903;52.220;20.978;2023-06-04T08:04:05;17.70;85.00
17571;DHT22;8903;52.220;20.978;2023-06-04T08:06:32;17.80;84.20
17571;DHT22;8903;52.220;20.978;2023-06-04T08:09:01;17.70;84.40
17571;DHT22;8903;52.220;20.978;2023-06-04T08:11:29;17.80;85.30
17571;DHT22;8903;52.220;20.978;2023-06-04T08:13:56;17.80;85.00
17571;DHT22;8903;52.220;20.978;2023-06-04T08:16:23;17.90;85.00
17571;DHT22;8903;52.220;20.978;2023-06-04T08:18:50;17.90;84.60
17571;DHT22;8903;52.220;20.978;2023-06-04T08:21:25;17.90;83.90
17571;DHT22;8903;52.220;20.978;2023-06-04T08:23:52;18.00;83.80
17571;DHT22;8903;52.220;20.978;2023-06-04T08:26:20;18.10;83.50
17571;DHT22;8903;52.220;20.978;2023-06-04T08:28:49;18.00;83.90
17571;DHT22;8903;52.220;20.978;2023-06-04T08:31:16;18.10;83.60
17571;DHT22;8903;52.220;20.978;2023-06-04T08:33:45;18.10;82.60
17571;DHT22;8903;52.220;20.978;2023-06-04T08:36:12;18.10;83.70
17571;DHT22;8903;52.220;20.978;2023-06-04T08:38:39;18.20;82.10
17571;DHT22;8903;52.220;20.978;2023-06-04T08:41:12;18.30;82.30
17571;DHT22;8903;52.220;20.978;2023-06-04T08:43:40;18.30;81.80
17571;DHT22;8903;52.220;20.978;2023-06-04T08:46:11;18.40;81.70
17571;DHT22;8903;52.220;20.978;2023-06-04T08:48:38;18.40;81.50
17571;DHT22;8903;52.220;20.978;2023-06-04T08:51:06;18.50;81.50
17571;DHT22;8903;52.220;20.978;2023-06-04T08:53:35;18.50;80.90
17571;DHT22;8903;52.220;20.978;2023-06-04T08:56:03;18.60;80.90
17571;DHT22;8903;52.220;20.978;2023-06-04T08:58:31;18.70;80.40
17571;DHT22;8903;52.220;20.978;2023-06-04T09:01:00;18.70;81.00
17571;DHT22;8903;52.220;20.978;2023-06-04T09:03:29;18.70;81.00
17571;DHT22;8903;52.220;20.978;2023-06-04T09:05:58;18.80;80.50
17571;DHT22;8903;52.220;20.978;2023-06-04T09:08:26;18.80;80.20
17571;DHT22;8903;52.220;20.978;2023-06-04T09:10:54;18.80;80.20
17571;DHT22;8903;52.220;20.978;2023-06-04T09:13:22;18.80;80.80
17571;DHT22;8903;52.220;20.978;2023-06-04T09:16:00;18.90;79.20
17571;DHT22;8903;52.220;20.978;2023-06-04T09:18:28;18.90;79.30
17571;DHT22;8903;52.220;20.978;2023-06-04T09:21:03;18.90;79.70
17571;DHT22;8903;52.220;20.978;2023-06-04T09:23:31;19.00;78.70
17571;DHT22;8903;52.220;20.978;2023-06-04T09:26:06;19.00;79.10
17571;DHT22;8903;52.220;20.978;2023-06-04T09:28:34;19.10;78.90
17571;DHT22;8903;52.220;20.978;2023-06-04T09:31:01;19.20;78.40
17571;DHT22;8903;52.220;20.978;2023-06-04T09:33:30;19.20;78.00
17571;DHT22;8903;52.220;20.978;2023-06-04T09:35:58;19.20;78.50
17571;DHT22;8903;52.220;20.978;2023-06-04T09:38:33;19.20;78.80
17571;DHT22;8903;52.220;20.978;2023-06-04T09:41:01;19.30;78.20
17571;DHT22;8903;52.220;20.978;2023-06-04T09:43:30;19.30;79.00
17571;DHT22;8903;52.220;20.978;2023-06-04T09:46:09;19.30;78.50
17571;DHT22;8903;52.220;20.978;2023-06-04T09:48:38;19.20;78.30
17571;DHT22;8903;52.220;20.978;2023-06-04T09:51:09;19.20;78.50
17571;DHT22;8903;52.220;20.978;2023-06-04T09:53:36;19.20;79.20
17571;DHT22;8903;52.220;20.978;2023-06-04T09:56:04;19.30;78.30
17571;DHT22;8903;52.220;20.978;2023-06-04T09:58:33;19.40;78.60
17571;DHT22;8903;52.220;20.978;2023-06-04T10:01:02;19.40;78.20
17571;DHT22;8903;52.220;20.978;2023-06-04T10:03:34;19.30;78.30
17571;DHT22;8903;52.220;20.978;2023-06-04T10:06:04;19.30;78.60
17571;DHT22;8903;52.220;20.978;2023-06-04T10:08:32;19.40;78.40
17571;DHT22;8903;52.220;20.978;2023-06-04T10:11:01;19.30;77.30
17571;DHT22;8903;52.220;20.978;2023-06-04T10:13:30;19.30;77.60
17571;DHT22;8903;52.220;20.978;2023-06-04T10:15:58;19.30;77.10
17571;DHT22;8903;52.220;20.978;2023-06-04T10:18:27;19.20;77.20
17571;DHT22;8903;52.220;20.978;2023-06-04T10:20:55;19.20;76.80
17571;DHT22;8903;52.220;20.978;2023-06-04T10:23:24;19.40;76.60
17571;DHT22;8903;52.220;20.978;2023-06-04T10:25:52;19.30;76.50
17571;DHT22;8903;52.220;20.978;2023-06-04T10:28:20;19.30;76.50
17571;DHT22;8903;52.220;20.978;2023-06-04T10:30:47;19.40;76.70
17571;DHT22;8903;52.220;20.978;2023-06-04T10:33:17;19.50;77.20
17571;DHT22;8903;52.220;20.978;2023-06-04T10:35:46;19.60;76.80
17571;DHT22;8903;52.220;20.978;2023-06-04T10:38:13;19.70;77.20
17571;DHT22;8903;52.220;20.978;2023-06-04T10:40:43;19.80;76.70
17571;DHT22;8903;52.220;20.978;2023-06-04T10:43:11;19.80;75.80
17571;DHT22;8903;52.220;20.978;2023-06-04T10:45:39;19.90;76.30
17571;DHT22;8903;52.220;20.978;2023-06-04T10:48:07;20.10;75.40
17571;DHT22;8903;52.220;20.978;2023-06-04T10:50:35;20.20;75.30
17571;DHT22;8903;52.220;20.978;2023-06-04T10:53:02;20.20;75.80
17571;DHT22;8903;52.220;20.978;2023-06-04T10:55:30;20.20;75.10
17571;DHT22;8903;52.220;20.978;2023-06-04T10:58:00;20.20;75.70
17571;DHT22;8903;52.220;20.978;2023-06-04T11:00:37;20.20;75.30
17571;DHT22;8903;52.220;20.978;2023-06-04T11:03:04;20.20;75.10
17571;DHT22;8903;52.220;20.978;2023-06-04T11:05:35;20.20;74.70
17571;DHT22;8903;52.220;20.978;2023-06-04T11:08:04;20.20;73.80
17571;DHT22;8903;52.220;20.978;2023-06-04T11:10:33;20.30;73.80
17571;DHT22;8903;52.220;20.978;2023-06-04T11:13:02;20.30;73.20
17571;DHT22;8903;52.220;20.978;2023-06-04T11:15:40;20.40;73.20
17571;DHT22;8903;52.220;20.978;2023-06-04T11:18:07;20.50;73.70
17571;DHT22;8903;52.220;20.978;2023-06-04T11:20:34;20.60;72.90
17571;DHT22;8903;52.220;20.978;2023-06-04T11:23:01;20.60;72.20
17571;DHT22;8903;52.220;20.978;2023-06-04T11:25:30;21.70;69.00
17571;DHT22;8903;52.220;20.978;2023-06-04T11:27:58;22.50;67.70
17571;DHT22;8903;52.220;20.978;2023-06-04T11:30:28;22.80;67.60
17571;DHT22;8903;52.220;20.978;2023-06-04T11:33:03;23.20;67.80
17571;DHT22;8903;52.220;20.978;2023-06-04T11:35:31;23.70;67.20
17571;DHT22;8903;52.220;20.978;2023-06-04T11:37:58;24.30;66.70
17571;DHT22;8903;52.220;20.978;2023-06-04T11:40:26;24.80;65.00
17571;DHT22;8903;52.220;20.978;2023-06-04T11:42:53;25.00;65.00
17571;DHT22;8903;52.220;20.978;2023-06-04T11:45:22;24.90;65.30
17571;DHT22;8903;52.220;20.978;2023-06-04T11:47:52;25.00;65.10
17571;DHT22;8903;52.220;20.978;2023-06-04T11:50:19;25.00;64.70
17571;DHT22;8903;52.220;20.978;2023-06-04T11:52:47;24.50;65.40
17571;DHT22;8903;52.220;20.978;2023-06-04T11:55:15;24.40;66.10
17571;DHT22;8903;52.220;20.978;2023-06-04T11:57:46;24.40;66.50
17571;DHT22;8903;52.220;20.978;2023-06-04T12:00:15;24.70;66.60
17571;DHT22;8903;52.220;20.978;2023-06-04T12:02:52;25.10;65.80
17571;DHT22;8903;52.220;20.978;2023-06-04T12:05:20;25.20;65.40
17571;DHT22;8903;52.220;20.978;2023-06-04T12:07:49;25.00;64.70
17571;DHT22;8903;52.220;20.978;2023-06-04T12:10:17;24.60;66.20
17571;DHT22;8903;52.220;20.978;2023-06-04T12:12:44;25.30;65.80
17571;DHT22;8903;52.220;20.978;2023-06-04T12:15:18;26.00;64.30
17571;DHT22;8903;52.220;20.978;2023-06-04T12:17:51;26.00;64.40
17571;DHT22;8903;52.220;20.978;2023-06-04T12:20:18;25.60;64.20
17571;DHT22;8903;52.220;20.978;2023-06-04T12:22:45;26.00;63.90
17571;DHT22;8903;52.220;20.978;2023-06-04T12:25:23;26.60;64.20
17571;DHT22;8903;52.220;20.978;2023-06-04T12:27:53;27.00;63.60
17571;DHT22;8903;52.220;20.978;2023-06-04T12:30:20;27.30;62.30
17571;DHT22;8903;52.220;20.978;2023-06-04T12:32:47;27.40;61.50
17571;DHT22;8903;52.220;20.978;2023-06-04T12:35:16;27.30;62.20
17571;DHT22;8903;52.220;20.978;2023-06-04T12:37:43;27.20;62.60
17571;DHT22;8903;52.220;20.978;2023-06-04T12:40:11;27.30;62.50
17571;DHT22;8903;52.220;20.978;2023-06-04T12:42:39;27.10;62.20
17571;DHT22;8903;52.220;20.978;2023-06-04T12:45:07;27.00;62.50
17571;DHT22;8903;52.220;20.978;2023-06-04T12:47:35;26.90;62.40
17571;DHT22;8903;52.220;20.978;2023-06-04T12:50:02;26.70;62.00
17571;DHT22;8903;52.220;20.978;2023-06-04T12:52:31;26.80;63.50
17571;DHT22;8903;52.220;20.978;2023-06-04T12:54:58;26.60;62.20
17571;DHT22;8903;52.220;20.978;2023-06-04T12:57:24;26.60;62.80
17571;DHT22;8903;52.220;20.978;2023-06-04T12:59:51;26.80;62.80
17571;DHT22;8903;52.220;20.978;2023-06-04T13:02:18;26.80;62.60
17571;DHT22;8903;52.220;20.978;2023-06-04T13:04:45;27.00;62.30
17571;DHT22;8903;52.220;20.978;2023-06-04T13:07:12;27.00;62.50
17571;DHT22;8903;52.220;20.978;2023-06-04T13:09:41;26.40;62.90
17571;DHT22;8903;52.220;20.978;2023-06-04T13:12:08;26.20;61.90
17571;DHT22;8903;52.220;20.978;2023-06-04T13:14:35;26.10;63.00
17571;DHT22;8903;52.220;20.978;2023-06-04T13:17:02;26.40;62.80
17571;DHT22;8903;52.220;20.978;2023-06-04T13:19:29;26.60;62.70
17571;DHT22;8903;52.220;20.978;2023-06-04T13:21:56;26.00;61.90
17571;DHT22;8903;52.220;20.978;2023-06-04T13:24:26;25.70;63.40
17571;DHT22;8903;52.220;20.978;2023-06-04T13:26:54;25.90;62.90
17571;DHT22;8903;52.220;20.978;2023-06-04T13:29:26;26.20;63.00
17571;DHT22;8903;52.220;20.978;2023-06-04T13:31:53;26.30;63.30
17571;DHT22;8903;52.220;20.978;2023-06-04T13:34:20;25.80;62.70
17571;DHT22;8903;52.220;20.978;2023-06-04T13:36:47;26.00;63.10
17571;DHT22;8903;52.220;20.978;2023-06-04T13:39:14;26.40;62.50
17571;DHT22;8903;52.220;20.978;2023-06-04T13:41:41;26.60;62.40
17571;DHT22;8903;52.220;20.978;2023-06-04T13:44:09;26.50;61.90
17571;DHT22;8903;52.220;20.978;2023-06-04T13:46:36;26.50;61.70
17571;DHT22;8903;52.220;20.978;2023-06-04T13:49:03;26.40;61.50
17571;DHT22;8903;52.220;20.978;2023-06-04T13:51:31;26.40;61.80
17571;DHT22;8903;52.220;20.978;2023-06-04T13:53:58;26.80;62.40
17571;DHT22;8903;52.220;20.978;2023-06-04T13:56:25;27.00;61.00
17571;DHT22;8903;52.220;20.978;2023-06-04T13:58:52;27.20;60.50
17571;DHT22;8903;52.220;20.978;2023-06-04T14:01:20;27.30;61.70
17571;DHT22;8903;52.220;20.978;2023-06-04T14:03:47;27.50;61.30
17571;DHT22;8903;52.220;20.978;2023-06-04T14:06:14;27.90;60.70
17571;DHT22;8903;52.220;20.978;2023-06-04T14:08:41;28.10;60.50
17571;DHT22;8903;52.220;20.978;2023-06-04T14:11:08;28.00;60.50
17571;DHT22;8903;52.220;20.978;2023-06-04T14:13:37;28.10;60.10
17571;DHT22;8903;52.220;20.978;2023-06-04T14:16:04;28.20;60.00
17571;DHT22;8903;52.220;20.978;2023-06-04T14:18:33;27.70;59.70
17571;DHT22;8903;52.220;20.978;2023-06-04T14:20:59;27.40;60.00
17571;DHT22;8903;52.220;20.978;2023-06-04T14:23:26;27.60;61.20
17571;DHT22;8903;52.220;20.978;2023-06-04T14:25:53;27.80;59.80
17571;DHT22;8903;52.220;20.978;2023-06-04T14:28:20;27.90;61.40
17571;DHT22;8903;52.220;20.978;2023-06-04T14:30:50;28.20;60.60
17571;DHT22;8903;52.220;20.978;2023-06-04T14:33:19;28.40;60.00
17571;DHT22;8903;52.220;20.978;2023-06-04T14:35:47;28.40;59.70
17571;DHT22;8903;52.220;20.978;2023-06-04T14:38:14;28.40;60.00
17571;DHT22;8903;52.220;20.978;2023-06-04T14:40:52;28.30;59.60
17571;DHT22;8903;52.220;20.978;2023-06-04T14:43:21;27.90;59.60
17571;DHT22;8903;52.220;20.978;2023-06-04T14:45:48;27.70;60.00
17571;DHT22;8903;52.220;20.978;2023-06-04T14:48:15;27.90;60.10
17571;DHT22;8903;52.220;20.978;2023-06-04T14:50:42;27.90;60.20
17571;DHT22;8903;52.220;20.978;2023-06-04T14:53:11;28.00;60.30
17571;DHT22;8903;52.220;20.978;2023-06-04T14:55:38;27.90;60.40
17571;DHT22;8903;52.220;20.978;2023-06-04T14:58:06;28.10;60.20
17571;DHT22;8903;52.220;20.978;2023-06-04T15:00:33;28.00;60.40
17571;DHT22;8903;52.220;20.978;2023-06-04T15:03:01;27.40;59.90
17571;DHT22;8903;52.220;20.978;2023-06-04T15:05:28;26.90;60.80
17571;DHT22;8903;52.220;20.978;2023-06-04T15:07:55;26.20;61.70
17571;DHT22;8903;52.220;20.978;2023-06-04T15:10:24;25.90;62.10
17571;DHT22;8903;52.220;20.978;2023-06-04T15:12:52;26.10;62.00
17571;DHT22;8903;52.220;20.978;2023-06-04T15:15:19;26.30;61.80
17571;DHT22;8903;52.220;20.978;2023-06-04T15:17:47;26.50;61.80
17571;DHT22;8903;52.220;20.978;2023-06-04T15:20:14;26.70;61.10
17571;DHT22;8903;52.220;20.978;2023-06-04T15:22:41;26.40;62.10
17571;DHT22;8903;52.220;20.978;2023-06-04T15:25:08;26.40;61.70
17571;DHT22;8903;52.220;20.978;2023-06-04T15:27:37;26.10;61.60
17571;DHT22;8903;52.220;20.978;2023-06-04T15:30:05;25.90;62.20
17571;DHT22;8903;52.220;20.978;2023-06-04T15:32:32;25.60;62.20
17571;DHT22;8903;52.220;20.978;2023-06-04T15:34:59;25.40;62.80
17571;DHT22;8903;52.220;20.978;2023-06-04T15:37:27;25.00;63.00